sensor_id;sensor_type;location;lat;lon;timestamp;pressure;altitude;pressure_sealevel;temperature
73894;BMP280;62699;50.534;12.784;2024-01-15T00:00:30;94464.16;;;-0.24
73894;BMP280;62699;50.534;12.784;2024-01-15T00:05:30;94483.75;;;-0.30
73894;BMP280;62699;50.534;12.784;2024-01-15T00:10:31;94469.09;;;-0.31
73894;BMP280;62699;50.534;12.784;2024-01-15T00:15:31;94481.81;;;-0.30
73894;BMP280;62699;50.534;12.784;2024-01-15T00:20:31;94470.25;;;-0.32
73894;BMP280;62699;50.534;12.784;2024-01-15T00:25:32;94466.16;;;-0.33
73894;BMP280;62699;50.534;12.784;2024-01-15T00:30:32;94427.97;;;-0.32
73894;BMP280;62699;50.534;12.784;2024-01-15T00:35:32;94439.72;;;-0.33
73894;BMP280;62699;50.534;12.784;2024-01-15T00:40:33;94429.22;;;-0.28
73894;BMP280;62699;50.534;12.784;2024-01-15T00:45:33;94458.84;;;-0.39
73894;BMP280;62699;50.534;12.784;2024-01-15T00:50:33;94437.53;;;-0.35
73894;BMP280;62699;50.534;12.784;2024-01-15T00:55:33;94428.81;;;-0.41
73894;BMP280;62699;50.534;12.784;2024-01-15T01:00:34;94433.00;;;-0.49
73894;BMP280;62699;50.534;12.784;2024-01-15T01:05:34;94420.75;;;-0.52
73894;BMP280;62699;50.534;12.784;2024-01-15T01:10:35;94418.63;;;-0.48
73894;BMP280;62699;50.534;12.784;2024-01-15T01:15:35;94409.88;;;-0.54
73894;BMP280;62699;50.534;12.784;2024-01-15T01:20:35;94437.22;;;-0.57
73894;BMP280;62699;50.534;12.784;2024-01-15T01:25:35;94433.84;;;-0.58
73894;BMP280;62699;50.534;12.784;2024-01-15T01:30:36;94419.47;;;-0.57
73894;BMP280;62699;50.534;12.784;2024-01-15T01:35:36;94441.25;;;-0.62
73894;BMP280;62699;50.534;12.784;2024-01-15T01:40:36;94431.59;;;-0.65
73894;BMP280;62699;50.534;12.784;2024-01-15T01:45:37;94436.25;;;-0.75
73894;BMP280;62699;50.534;12.784;2024-01-15T01:50:38;94445.94;;;-0.86
73894;BMP280;62699;50.534;12.784;2024-01-15T01:55:39;94441.28;;;-0.91
73894;BMP280;62699;50.534;12.784;2024-01-15T02:00:39;94414.63;;;-0.93
73894;BMP280;62699;50.534;12.784;2024-01-15T02:05:40;94412.88;;;-0.96
73894;BMP280;62699;50.534;12.784;2024-01-15T02:10:40;94406.81;;;-1.02
73894;BMP280;62699;50.534;12.784;2024-01-15T02:15:40;94399.78;;;-1.05
73894;BMP280;62699;50.534;12.784;2024-01-15T02:20:41;94405.69;;;-1.11
73894;BMP280;62699;50.534;12.784;2024-01-15T02:25:42;94416.19;;;-1.16
73894;BMP280;62699;50.534;12.784;2024-01-15T02:30:47;94414.38;;;-1.25
73894;BMP280;62699;50.534;12.784;2024-01-15T02:35:47;94425.56;;;-1.30
73894;BMP280;62699;50.534;12.784;2024-01-15T02:40:50;94423.88;;;-1.42
73894;BMP280;62699;50.534;12.784;2024-01-15T02:45:50;94433.91;;;-1.46
73894;BMP280;62699;50.534;12.784;2024-01-15T02:50:51;94433.63;;;-1.48
73894;BMP280;62699;50.534;12.784;2024-01-15T02:55:51;94448.00;;;-1.49
73894;BMP280;62699;50.534;12.784;2024-01-15T03:00:51;94415.44;;;-1.46
73894;BMP280;62699;50.534;12.784;2024-01-15T03:05:51;94428.59;;;-1.61
73894;BMP280;62699;50.534;12.784;2024-01-15T03:10:52;94430.41;;;-1.67
73894;BMP280;62699;50.534;12.784;2024-01-15T03:15:52;94435.03;;;-1.76
73894;BMP280;62699;50.534;12.784;2024-01-15T03:20:52;94431.88;;;-1.90
73894;BMP280;62699;50.534;12.784;2024-01-15T03:25:52;94428.88;;;-1.97
73894;BMP280;62699;50.534;12.784;2024-01-15T03:30:53;94422.22;;;-1.93
73894;BMP280;62699;50.534;12.784;2024-01-15T03:35:53;94399.75;;;-2.03
73894;BMP280;62699;50.534;12.784;2024-01-15T03:40:53;94390.66;;;-2.02
73894;BMP280;62699;50.534;12.784;2024-01-15T03:45:53;94403.84;;;-2.02
73894;BMP280;62699;50.534;12.784;2024-01-15T03:50:54;94381.50;;;-2.06
73894;BMP280;62699;50.534;12.784;2024-01-15T03:55:54;94394.22;;;-2.05
73894;BMP280;62699;50.534;12.784;2024-01-15T04:00:54;94410.28;;;-2.03
73894;BMP280;62699;50.534;12.784;2024-01-15T04:05:54;94411.50;;;-2.04
73894;BMP280;62699;50.534;12.784;2024-01-15T04:10:55;94412.75;;;-1.99
73894;BMP280;62699;50.534;12.784;2024-01-15T04:15:55;94421.69;;;-1.97
73894;BMP280;62699;50.534;12.784;2024-01-15T04:20:56;94423.88;;;-1.95
73894;BMP280;62699;50.534;12.784;2024-01-15T04:25:56;94415.78;;;-1.92
73894;BMP280;62699;50.534;12.784;2024-01-15T04:30:57;94410.06;;;-1.90
73894;BMP280;62699;50.534;12.784;2024-01-15T04:36:01;94423.69;;;-1.92
73894;BMP280;62699;50.534;12.784;2024-01-15T04:41:04;94415.63;;;-1.88
73894;BMP280;62699;50.534;12.784;2024-01-15T04:46:07;94409.53;;;-1.94
73894;BMP280;62699;50.534;12.784;2024-01-15T04:51:08;94411.13;;;-1.97
73894;BMP280;62699;50.534;12.784;2024-01-15T04:56:09;94420.97;;;-1.97
73894;BMP280;62699;50.534;12.784;2024-01-15T05:01:09;94419.66;;;-2.02
73894;BMP280;62699;50.534;12.784;2024-01-15T05:06:10;94425.06;;;-1.96
73894;BMP280;62699;50.534;12.784;2024-01-15T05:11:10;94437.50;;;-1.97
73894;BMP280;62699;50.534;12.784;2024-01-15T05:16:10;94438.69;;;-1.98
73894;BMP280;62699;50.534;12.784;2024-01-15T05:21:10;94415.84;;;-2.01
73894;BMP280;62699;50.534;12.784;2024-01-15T05:26:11;94444.25;;;-1.96
73894;BMP280;62699;50.534;12.784;2024-01-15T05:31:11;94433.97;;;-1.94
73894;BMP280;62699;50.534;12.784;2024-01-15T05:36:11;94446.44;;;-1.94
73894;BMP280;62699;50.534;12.784;2024-01-15T05:41:11;94457.06;;;-1.89
73894;BMP280;62699;50.534;12.784;2024-01-15T05:46:12;94451.50;;;-1.91
73894;BMP280;62699;50.534;12.784;2024-01-15T05:51:12;94445.66;;;-1.86
73894;BMP280;62699;50.534;12.784;2024-01-15T05:56:12;94461.75;;;-1.84
73894;BMP280;62699;50.534;12.784;2024-01-15T06:01:12;94448.28;;;-1.86
73894;BMP280;62699;50.534;12.784;2024-01-15T06:06:13;94463.22;;;-1.92
73894;BMP280;62699;50.534;12.784;2024-01-15T06:11:13;94463.88;;;-1.97
73894;BMP280;62699;50.534;12.784;2024-01-15T06:16:14;94449.38;;;-2.01
73894;BMP280;62699;50.534;12.784;2024-01-15T06:21:16;94455.97;;;-1.97
73894;BMP280;62699;50.534;12.784;2024-01-15T06:26:16;94434.75;;;-2.02
73894;BMP280;62699;50.534;12.784;2024-01-15T06:31:16;94434.59;;;-1.99
73894;BMP280;62699;50.534;12.784;2024-01-15T06:36:17;94458.59;;;-1.97
73894;BMP280;62699;50.534;12.784;2024-01-15T06:41:17;94446.13;;;-1.96
73894;BMP280;62699;50.534;12.784;2024-01-15T06:46:21;94440.41;;;-1.95
73894;BMP280;62699;50.534;12.784;2024-01-15T06:51:22;94441.16;;;-1.94
73894;BMP280;62699;50.534;12.784;2024-01-15T06:56:22;94440.41;;;-1.95
73894;BMP280;62699;50.534;12.784;2024-01-15T07:01:22;94456.97;;;-1.94
73894;BMP280;62699;50.534;12.784;2024-01-15T07:06:22;94458.59;;;-1.97
73894;BMP280;62699;50.534;12.784;2024-01-15T07:11:23;94441.75;;;-1.99
73894;BMP280;62699;50.534;12.784;2024-01-15T07:16:23;94448.50;;;-1.98
73894;BMP280;62699;50.534;12.784;2024-01-15T07:21:23;94463.13;;;-1.97
73894;BMP280;62699;50.534;12.784;2024-01-15T07:26:24;94455.50;;;-1.95
73894;BMP280;62699;50.534;12.784;2024-01-15T07:31:25;94454.59;;;-1.92
73894;BMP280;62699;50.534;12.784;2024-01-15T07:36:25;94462.63;;;-1.87
73894;BMP280;62699;50.534;12.784;2024-01-15T07:41:25;94459.56;;;-1.85
73894;BMP280;62699;50.534;12.784;2024-01-15T07:46:25;94458.84;;;-1.86
73894;BMP280;62699;50.534;12.784;2024-01-15T07:51:26;94469.31;;;-1.76
73894;BMP280;62699;50.534;12.784;2024-01-15T07:56:26;94462.22;;;-1.70
73894;BMP280;62699;50.534;12.784;2024-01-15T08:01:27;94449.69;;;-1.75
73894;BMP280;62699;50.534;12.784;2024-01-15T08:06:27;94466.03;;;-1.71
73894;BMP280;62699;50.534;12.784;2024-01-15T08:11:28;94448.88;;;-1.67
73894;BMP280;62699;50.534;12.784;2024-01-15T08:16:28;94457.06;;;-1.65
73894;BMP280;62699;50.534;12.784;2024-01-15T08:21:28;94452.44;;;-1.55
73894;BMP280;62699;50.534;12.784;2024-01-15T08:26:30;94450.91;;;-1.47
73894;BMP280;62699;50.534;12.784;2024-01-15T08:31:30;94455.09;;;-1.40
73894;BMP280;62699;50.534;12.784;2024-01-15T08:36:31;94449.66;;;-1.37
73894;BMP280;62699;50.534;12.784;2024-01-15T08:41:34;94458.41;;;-1.31
73894;BMP280;62699;50.534;12.784;2024-01-15T08:46:35;94444.94;;;-1.33
73894;BMP280;62699;50.534;12.784;2024-01-15T08:51:35;94453.28;;;-1.34
73894;BMP280;62699;50.534;12.784;2024-01-15T08:56:35;94469.69;;;-1.30
73894;BMP280;62699;50.534;12.784;2024-01-15T09:01:36;94473.34;;;-1.28
73894;BMP280;62699;50.534;12.784;2024-01-15T09:06:36;94477.53;;;-1.21
73894;BMP280;62699;50.534;12.784;2024-01-15T09:11:36;94466.78;;;-1.18
73894;BMP280;62699;50.534;12.784;2024-01-15T09:16:36;94471.97;;;-1.08
73894;BMP280;62699;50.534;12.784;2024-01-15T09:21:38;94466.50;;;-0.90
73894;BMP280;62699;50.534;12.784;2024-01-15T09:26:38;94474.59;;;-0.79
73894;BMP280;62699;50.534;12.784;2024-01-15T09:31:39;94473.81;;;-0.85
73894;BMP280;62699;50.534;12.784;2024-01-15T09:36:40;94470.06;;;-0.79
73894;BMP280;62699;50.534;12.784;2024-01-15T09:41:41;94463.03;;;-0.67
73894;BMP280;62699;50.534;12.784;2024-01-15T09:46:42;94466.56;;;-0.55
73894;BMP280;62699;50.534;12.784;2024-01-15T09:51:44;94460.81;;;-0.54
73894;BMP280;62699;50.534;12.784;2024-01-15T09:56:46;94460.72;;;-0.59
73894;BMP280;62699;50.534;12.784;2024-01-15T10:01:47;94477.31;;;-0.59
73894;BMP280;62699;50.534;12.784;2024-01-15T10:06:50;94470.84;;;-0.58
73894;BMP280;62699;50.534;12.784;2024-01-15T10:11:51;94448.38;;;-0.68
73894;BMP280;62699;50.534;12.784;2024-01-15T10:16:51;94438.97;;;-0.69
73894;BMP280;62699;50.534;12.784;2024-01-15T10:21:51;94443.63;;;-0.64
73894;BMP280;62699;50.534;12.784;2024-01-15T10:26:51;94423.41;;;-0.67
73894;BMP280;62699;50.534;12.784;2024-01-15T10:31:52;94434.50;;;-0.63
73894;BMP280;62699;50.534;12.784;2024-01-15T10:36:52;94425.28;;;-0.53
73894;BMP280;62699;50.534;12.784;2024-01-15T10:41:55;94421.56;;;-0.26
73894;BMP280;62699;50.534;12.784;2024-01-15T10:46:56;94409.56;;;-0.07
73894;BMP280;62699;50.534;12.784;2024-01-15T10:51:57;94417.78;;;0.21
73894;BMP280;62699;50.534;12.784;2024-01-15T10:56:57;94418.84;;;0.55
73894;BMP280;62699;50.534;12.784;2024-01-15T11:01:58;94391.66;;;0.86
73894;BMP280;62699;50.534;12.784;2024-01-15T11:06:59;94392.38;;;0.81
73894;BMP280;62699;50.534;12.784;2024-01-15T11:12:10;94394.94;;;1.01
73894;BMP280;62699;50.534;12.784;2024-01-15T11:17:11;94385.72;;;0.91
73894;BMP280;62699;50.534;12.784;2024-01-15T11:32:42;94396.75;;;0.58
73894;BMP280;62699;50.534;12.784;2024-01-15T11:42:52;94403.72;;;0.30
73894;BMP280;62699;50.534;12.784;2024-01-15T11:48:17;94392.63;;;0.31
73894;BMP280;62699;50.534;12.784;2024-01-15T11:53:27;94389.22;;;0.25
73894;BMP280;62699;50.534;12.784;2024-01-15T11:58:29;94377.97;;;0.30
73894;BMP280;62699;50.534;12.784;2024-01-15T12:03:32;94376.88;;;0.17
73894;BMP280;62699;50.534;12.784;2024-01-15T12:08:32;94376.41;;;0.18
73894;BMP280;62699;50.534;12.784;2024-01-15T12:13:32;94382.28;;;0.33
73894;BMP280;62699;50.534;12.784;2024-01-15T12:18:33;94371.78;;;0.39
73894;BMP280;62699;50.534;12.784;2024-01-15T12:23:33;94386.25;;;0.18
73894;BMP280;62699;50.534;12.784;2024-01-15T12:28:33;94385.66;;;0.28
73894;BMP280;62699;50.534;12.784;2024-01-15T12:33:34;94395.47;;;0.02
73894;BMP280;62699;50.534;12.784;2024-01-15T12:38:34;94405.66;;;-0.11
73894;BMP280;62699;50.534;12.784;2024-01-15T12:43:34;94404.72;;;-0.08
73894;BMP280;62699;50.534;12.784;2024-01-15T12:48:35;94397.97;;;-0.29
73894;BMP280;62699;50.534;12.784;2024-01-15T12:53:35;94401.44;;;-0.38
73894;BMP280;62699;50.534;12.784;2024-01-15T12:58:35;94396.38;;;-0.42
73894;BMP280;62699;50.534;12.784;2024-01-15T13:03:35;94397.94;;;-0.50
73894;BMP280;62699;50.534;12.784;2024-01-15T13:08:36;94407.97;;;-0.54
73894;BMP280;62699;50.534;12.784;2024-01-15T13:13:36;94407.31;;;-0.49
73894;BMP280;62699;50.534;12.784;2024-01-15T13:18:36;94390.16;;;-0.39
73894;BMP280;62699;50.534;12.784;2024-01-15T13:23:36;94393.25;;;-0.40
73894;BMP280;62699;50.534;12.784;2024-01-15T13:28:37;94382.03;;;-0.35
73894;BMP280;62699;50.534;12.784;2024-01-15T13:33:38;94389.00;;;-0.17
73894;BMP280;62699;50.534;12.784;2024-01-15T13:38:38;94384.59;;;-0.41
73894;BMP280;62699;50.534;12.784;2024-01-15T13:43:39;94385.59;;;-0.38
73894;BMP280;62699;50.534;12.784;2024-01-15T13:48:39;94386.59;;;-0.36
73894;BMP280;62699;50.534;12.784;2024-01-15T13:53:39;94391.38;;;-0.19
73894;BMP280;62699;50.534;12.784;2024-01-15T13:58:40;94397.59;;;-0.22
73894;BMP280;62699;50.534;12.784;2024-01-15T14:03:40;94411.72;;;-0.25
73894;BMP280;62699;50.534;12.784;2024-01-15T14:08:40;94409.28;;;-0.29
73894;BMP280;62699;50.534;12.784;2024-01-15T14:13:41;94396.50;;;-0.30
73894;BMP280;62699;50.534;12.784;2024-01-15T14:18:41;94393.41;;;-0.29
73894;BMP280;62699;50.534;12.784;2024-01-15T14:23:41;94391.97;;;-0.30
73894;BMP280;62699;50.534;12.784;2024-01-15T14:28:42;94399.66;;;-0.47
73894;BMP280;62699;50.534;12.784;2024-01-15T14:33:45;94401.84;;;-0.45
73894;BMP280;62699;50.534;12.784;2024-01-15T14:38:45;94419.88;;;-0.44
73894;BMP280;62699;50.534;12.784;2024-01-15T14:43:46;94407.72;;;-0.56
73894;BMP280;62699;50.534;12.784;2024-01-15T14:48:46;94413.91;;;-0.59
73894;BMP280;62699;50.534;12.784;2024-01-15T14:53:46;94431.88;;;-0.63
73894;BMP280;62699;50.534;12.784;2024-01-15T14:58:47;94419.84;;;-0.64
73894;BMP280;62699;50.534;12.784;2024-01-15T15:03:47;94423.94;;;-0.63
73894;BMP280;62699;50.534;12.784;2024-01-15T15:08:48;94424.84;;;-0.66
73894;BMP280;62699;50.534;12.784;2024-01-15T15:13:48;94422.16;;;-0.71
73894;BMP280;62699;50.534;12.784;2024-01-15T15:18:49;94427.69;;;-0.69
73894;BMP280;62699;50.534;12.784;2024-01-15T15:23:50;94426.22;;;-0.70
73894;BMP280;62699;50.534;12.784;2024-01-15T15:28:51;94436.09;;;-0.86
73894;BMP280;62699;50.534;12.784;2024-01-15T15:33:51;94444.56;;;-0.96
73894;BMP280;62699;50.534;12.784;2024-01-15T15:38:52;94447.31;;;-1.05
73894;BMP280;62699;50.534;12.784;2024-01-15T15:43:55;94460.78;;;-1.03
73894;BMP280;62699;50.534;12.784;2024-01-15T15:48:55;94475.53;;;-0.97
73894;BMP280;62699;50.534;12.784;2024-01-15T15:53:56;94455.94;;;-0.90
73894;BMP280;62699;50.534;12.784;2024-01-15T15:58:56;94476.44;;;-0.85
73894;BMP280;62699;50.534;12.784;2024-01-15T16:03:56;94475.16;;;-0.75
73894;BMP280;62699;50.534;12.784;2024-01-15T16:08:56;94474.25;;;-0.72
73894;BMP280;62699;50.534;12.784;2024-01-15T16:13:57;94467.97;;;-0.75
73894;BMP280;62699;50.534;12.784;2024-01-15T16:18:57;94473.97;;;-0.74
73894;BMP280;62699;50.534;12.784;2024-01-15T16:23:57;94472.25;;;-0.77
73894;BMP280;62699;50.534;12.784;2024-01-15T16:28:58;94466.31;;;-0.72
73894;BMP280;62699;50.534;12.784;2024-01-15T16:33:58;94474.50;;;-0.70
73894;BMP280;62699;50.534;12.784;2024-01-15T16:38:58;94487.72;;;-0.70
73894;BMP280;62699;50.534;12.784;2024-01-15T16:43:58;94489.16;;;-0.69
73894;BMP280;62699;50.534;12.784;2024-01-15T16:48:59;94490.56;;;-0.74
73894;BMP280;62699;50.534;12.784;2024-01-15T16:54:02;94492.19;;;-0.76
73894;BMP280;62699;50.534;12.784;2024-01-15T16:59:02;94489.53;;;-0.76
73894;BMP280;62699;50.534;12.784;2024-01-15T17:04:02;94493.66;;;-0.75
73894;BMP280;62699;50.534;12.784;2024-01-15T17:09:03;94505.69;;;-0.74
73894;BMP280;62699;50.534;12.784;2024-01-15T17:14:04;94505.28;;;-0.67
73894;BMP280;62699;50.534;12.784;2024-01-15T17:19:04;94514.22;;;-0.64
73894;BMP280;62699;50.534;12.784;2024-01-15T17:24:06;94516.13;;;-0.65
73894;BMP280;62699;50.534;12.784;2024-01-15T17:29:06;94525.97;;;-0.65
73894;BMP280;62699;50.534;12.784;2024-01-15T17:34:06;94528.91;;;-0.63
73894;BMP280;62699;50.534;12.784;2024-01-15T17:39:07;94542.09;;;-0.63
73894;BMP280;62699;50.534;12.784;2024-01-15T17:44:09;94542.00;;;-0.54
73894;BMP280;62699;50.534;12.784;2024-01-15T17:49:10;94533.81;;;-0.56
73894;BMP280;62699;50.534;12.784;2024-01-15T17:54:10;94538.91;;;-0.53
73894;BMP280;62699;50.534;12.784;2024-01-15T17:59:10;94543.19;;;-0.55
73894;BMP280;62699;50.534;12.784;2024-01-15T18:04:13;94550.09;;;-0.58
73894;BMP280;62699;50.534;12.784;2024-01-15T18:09:15;94544.53;;;-0.60
73894;BMP280;62699;50.534;12.784;2024-01-15T18:14:19;94538.09;;;-0.59
73894;BMP280;62699;50.534;12.784;2024-01-15T18:19:19;94531.81;;;-0.61
73894;BMP280;62699;50.534;12.784;2024-01-15T18:24:19;94539.75;;;-0.61
73894;BMP280;62699;50.534;12.784;2024-01-15T18:29:20;94546.47;;;-0.60
73894;BMP280;62699;50.534;12.784;2024-01-15T18:34:21;94546.38;;;-0.66
73894;BMP280;62699;50.534;12.784;2024-01-15T18:39:21;94556.94;;;-0.66
73894;BMP280;62699;50.534;12.784;2024-01-15T18:44:22;94564.59;;;-0.68
73894;BMP280;62699;50.534;12.784;2024-01-15T18:49:22;94557.84;;;-0.69
73894;BMP280;62699;50.534;12.784;2024-01-15T18:54:23;94568.97;;;-0.65
73894;BMP280;62699;50.534;12.784;2024-01-15T18:59:23;94566.78;;;-0.66
73894;BMP280;62699;50.534;12.784;2024-01-15T19:04:24;94582.19;;;-0.65
73894;BMP280;62699;50.534;12.784;2024-01-15T19:09:24;94582.81;;;-0.70
73894;BMP280;62699;50.534;12.784;2024-01-15T19:14:25;94586.28;;;-0.64
73894;BMP280;62699;50.534;12.784;2024-01-15T19:19:26;94577.44;;;-0.61
73894;BMP280;62699;50.534;12.784;2024-01-15T19:24:26;94580.72;;;-0.66
73894;BMP280;62699;50.534;12.784;2024-01-15T19:29:26;94593.03;;;-0.63
73894;BMP280;62699;50.534;12.784;2024-01-15T19:34:26;94595.84;;;-0.66
73894;BMP280;62699;50.534;12.784;2024-01-15T19:39:27;94593.47;;;-0.79
73894;BMP280;62699;50.534;12.784;2024-01-15T19:44:28;94603.66;;;-0.87
73894;BMP280;62699;50.534;12.784;2024-01-15T19:49:28;94615.78;;;-0.80
73894;BMP280;62699;50.534;12.784;2024-01-15T19:54:28;94616.03;;;-0.93
73894;BMP280;62699;50.534;12.784;2024-01-15T19:59:29;94623.31;;;-1.02
73894;BMP280;62699;50.534;12.784;2024-01-15T20:04:31;94641.31;;;-1.01
73894;BMP280;62699;50.534;12.784;2024-01-15T20:09:32;94642.97;;;-1.03
73894;BMP280;62699;50.534;12.784;2024-01-15T20:14:32;94644.44;;;-1.02
73894;BMP280;62699;50.534;12.784;2024-01-15T20:19:32;94658.00;;;-0.95
73894;BMP280;62699;50.534;12.784;2024-01-15T20:24:33;94660.28;;;-1.02
73894;BMP280;62699;50.534;12.784;2024-01-15T20:29:33;94670.88;;;-1.12
73894;BMP280;62699;50.534;12.784;2024-01-15T20:34:33;94678.84;;;-1.21
73894;BMP280;62699;50.534;12.784;2024-01-15T20:39:34;94680.22;;;-1.25
73894;BMP280;62699;50.534;12.784;2024-01-15T20:44:34;94696.06;;;-1.25
73894;BMP280;62699;50.534;12.784;2024-01-15T20:49:34;94693.78;;;-1.18
73894;BMP280;62699;50.534;12.784;2024-01-15T20:54:35;94704.66;;;-1.16
73894;BMP280;62699;50.534;12.784;2024-01-15T20:59:35;94725.38;;;-0.99
73894;BMP280;62699;50.534;12.784;2024-01-15T21:04:35;94719.53;;;-1.03
73894;BMP280;62699;50.534;12.784;2024-01-15T21:09:35;94724.53;;;-1.05
73894;BMP280;62699;50.534;12.784;2024-01-15T21:14:38;94725.88;;;-1.10
73894;BMP280;62699;50.534;12.784;2024-01-15T21:19:39;94735.81;;;-1.05
73894;BMP280;62699;50.534;12.784;2024-01-15T21:24:39;94744.88;;;-0.97
73894;BMP280;62699;50.534;12.784;2024-01-15T21:29:39;94772.84;;;-0.90
73894;BMP280;62699;50.534;12.784;2024-01-15T21:34:39;94777.56;;;-0.94
73894;BMP280;62699;50.534;12.784;2024-01-15T21:39:40;94774.53;;;-1.02
73894;BMP280;62699;50.534;12.784;2024-01-15T21:44:42;94781.44;;;-1.04
73894;BMP280;62699;50.534;12.784;2024-01-15T21:49:43;94784.63;;;-1.00
73894;BMP280;62699;50.534;12.784;2024-01-15T21:54:45;94785.59;;;-0.89
73894;BMP280;62699;50.534;12.784;2024-01-15T21:59:46;94785.78;;;-0.92
73894;BMP280;62699;50.534;12.784;2024-01-15T22:04:46;94805.56;;;-0.88
73894;BMP280;62699;50.534;12.784;2024-01-15T22:09:46;94815.97;;;-0.84
73894;BMP280;62699;50.534;12.784;2024-01-15T22:14:46;94832.59;;;-0.93
73894;BMP280;62699;50.534;12.784;2024-01-15T22:19:47;94842.66;;;-0.82
73894;BMP280;62699;50.534;12.784;2024-01-15T22:24:47;94835.06;;;-0.89
73894;BMP280;62699;50.534;12.784;2024-01-15T22:29:47;94837.59;;;-0.95
73894;BMP280;62699;50.534;12.784;2024-01-15T22:34:50;94847.13;;;-0.97
73894;BMP280;62699;50.534;12.784;2024-01-15T22:39:51;94859.00;;;-0.93
73894;BMP280;62699;50.534;12.784;2024-01-15T22:44:51;94860.31;;;-0.97
73894;BMP280;62699;50.534;12.784;2024-01-15T22:49:51;94861.69;;;-1.02
73894;BMP280;62699;50.534;12.784;2024-01-15T22:54:52;94860.31;;;-0.97
73894;BMP280;62699;50.534;12.784;2024-01-15T22:59:54;94862.13;;;-1.03
73894;BMP280;62699;50.534;12.784;2024-01-15T23:04:54;94862.84;;;-1.03
73894;BMP280;62699;50.534;12.784;2024-01-15T23:09:55;94860.03;;;-0.99
73894;BMP280;62699;50.534;12.784;2024-01-15T23:14:56;94865.94;;;-1.04
73894;BMP280;62699;50.534;12.784;2024-01-15T23:19:56;94872.25;;;-1.02
73894;BMP280;62699;50.534;12.784;2024-01-15T23:24:56;94878.69;;;-1.03
73894;BMP280;62699;50.534;12.784;2024-01-15T23:29:57;94873.41;;;-1.03
73894;BMP280;62699;50.534;12.784;2024-01-15T23:34:58;94882.06;;;-1.02
73894;BMP280;62699;50.534;12.784;2024-01-15T23:39:58;94874.63;;;-1.13
73894;BMP280;62699;50.534;12.784;2024-01-15T23:44:58;94889.03;;;-1.32
73894;BMP280;62699;50.534;12.784;2024-01-15T23:49:59;94887.69;;;-1.28
73894;BMP280;62699;50.534;12.784;2024-01-15T23:54:59;94899.13;;;-1.22
73894;BMP280;62699;50.534;12.784;2024-01-15T23:59:59;94894.31;;;-1.23
